sensor_id;sensor_type;location;lat;lon;timestamp;temperature;humidity
21502;DHT22;27639;48.674;9.242;2022-12-22T00:00:22;12.30;63.50
21502;DHT22;27639;48.674;9.242;2022-12-22T00:03:12;12.40;63.60
21502;DHT22;27639;48.674;9.242;2022-12-22T00:05:56;12.40;63.60
21502;DHT22;27639;48.674;9.242;2022-12-22T00:08:40;12.30;63.50
21502;DHT22;27639;48.674;9.242;2022-12-22T00:11:25;12.30;64.40
21502;DHT22;27639;48.674;9.242;2022-12-22T00:14:10;12.30;63.60
21502;DHT22;27639;48.674;9.242;2022-12-22T00:16:57;12.40;63.80
21502;DHT22;27639;48.674;9.242;2022-12-22T00:19:42;12.40;63.60
21502;DHT22;27639;48.674;9.242;2022-12-22T00:22:26;12.50;63.70
21502;DHT22;27639;48.674;9.242;2022-12-22T00:25:14;12.40;63.70
21502;DHT22;27639;48.674;9.242;2022-12-22T00:27:58;12.30;63.70
21502;DHT22;27639;48.674;9.242;2022-12-22T00:30:44;12.30;64.00
21502;DHT22;27639;48.674;9.242;2022-12-22T00:33:28;12.40;63.80
21502;DHT22;27639;48.674;9.242;2022-12-22T00:36:13;12.40;64.00
21502;DHT22;27639;48.674;9.242;2022-12-22T00:38:57;12.30;64.20
21502;DHT22;27639;48.674;9.242;2022-12-22T00:41:42;12.30;64.40
21502;DHT22;27639;48.674;9.242;2022-12-22T00:44:26;12.30;64.30
21502;DHT22;27639;48.674;9.242;2022-12-22T00:47:16;12.40;64.40
21502;DHT22;27639;48.674;9.242;2022-12-22T00:50:03;12.50;64.20
21502;DHT22;27639;48.674;9.242;2022-12-22T00:52:47;12.60;64.00
21502;DHT22;27639;48.674;9.242;2022-12-22T00:55:32;12.60;64.00
21502;DHT22;27639;48.674;9.242;2022-12-22T00:58:18;12.40;64.30
21502;DHT22;27639;48.674;9.242;2022-12-22T01:01:03;12.50;64.50
21502;DHT22;27639;48.674;9.242;2022-12-22T01:03:47;12.60;64.20
21502;DHT22;27639;48.674;9.242;2022-12-22T01:06:32;12.70;64.40
21502;DHT22;27639;48.674;9.242;2022-12-22T01:09:18;12.60;64.60
21502;DHT22;27639;48.674;9.242;2022-12-22T01:12:04;12.60;64.70
21502;DHT22;27639;48.674;9.242;2022-12-22T01:14:52;12.70;64.60
21502;DHT22;27639;48.674;9.242;2022-12-22T01:17:36;12.70;64.60
21502;DHT22;27639;48.674;9.242;2022-12-22T01:20:20;12.70;64.70
21502;DHT22;27639;48.674;9.242;2022-12-22T01:23:08;12.70;64.90
21502;DHT22;27639;48.674;9.242;2022-12-22T01:25:53;12.60;64.60
21502;DHT22;27639;48.674;9.242;2022-12-22T01:28:37;12.60;65.10
21502;DHT22;27639;48.674;9.242;2022-12-22T01:31:30;12.60;65.00
21502;DHT22;27639;48.674;9.242;2022-12-22T01:34:14;12.70;65.00
21502;DHT22;27639;48.674;9.242;2022-12-22T01:36:59;12.80;64.80
21502;DHT22;27639;48.674;9.242;2022-12-22T01:39:43;12.70;64.70
21502;DHT22;27639;48.674;9.242;2022-12-22T01:42:27;12.70;65.10
21502;DHT22;27639;48.674;9.242;2022-12-22T01:45:24;12.70;66.30
21502;DHT22;27639;48.674;9.242;2022-12-22T01:48:09;12.70;65.60
21502;DHT22;27639;48.674;9.242;2022-12-22T01:50:53;12.60;65.60
21502;DHT22;27639;48.674;9.242;2022-12-22T01:53:38;12.50;65.90
21502;DHT22;27639;48.674;9.242;2022-12-22T01:56:22;12.60;66.00
21502;DHT22;27639;48.674;9.242;2022-12-22T01:59:06;12.70;65.90
21502;DHT22;27639;48.674;9.242;2022-12-22T02:01:50;12.70;65.60
21502;DHT22;27639;48.674;9.242;2022-12-22T02:04:39;12.80;65.50
21502;DHT22;27639;48.674;9.242;2022-12-22T02:07:52;12.80;65.70
21502;DHT22;27639;48.674;9.242;2022-12-22T02:10:45;12.80;65.50
21502;DHT22;27639;48.674;9.242;2022-12-22T02:16:44;12.70;66.10
21502;DHT22;27639;48.674;9.242;2022-12-22T02:26:26;12.80;65.90
21502;DHT22;27639;48.674;9.242;2022-12-22T02:29:13;12.90;65.90
21502;DHT22;27639;48.674;9.242;2022-12-22T02:31:58;12.90;66.10
21502;DHT22;27639;48.674;9.242;2022-12-22T02:34:42;12.90;66.10
21502;DHT22;27639;48.674;9.242;2022-12-22T02:40:49;12.80;66.00
21502;DHT22;27639;48.674;9.242;2022-12-22T02:43:53;12.80;66.50
21502;DHT22;27639;48.674;9.242;2022-12-22T02:47:07;12.80;66.70
21502;DHT22;27639;48.674;9.242;2022-12-22T02:49:56;12.80;66.50
21502;DHT22;27639;48.674;9.242;2022-12-22T02:52:43;12.80;67.40
21502;DHT22;27639;48.674;9.242;2022-12-22T02:55:28;12.80;67.70
21502;DHT22;27639;48.674;9.242;2022-12-22T02:58:12;12.80;68.10
21502;DHT22;27639;48.674;9.242;2022-12-22T03:00:57;12.80;68.30
21502;DHT22;27639;48.674;9.242;2022-12-22T03:03:42;12.80;68.40
21502;DHT22;27639;48.674;9.242;2022-12-22T03:06:26;12.80;68.20
21502;DHT22;27639;48.674;9.242;2022-12-22T03:09:10;12.80;68.10
21502;DHT22;27639;48.674;9.242;2022-12-22T03:11:54;12.90;68.20
21502;DHT22;27639;48.674;9.242;2022-12-22T03:14:38;12.70;68.00
21502;DHT22;27639;48.674;9.242;2022-12-22T03:17:22;12.70;68.30
21502;DHT22;27639;48.674;9.242;2022-12-22T03:20:07;12.60;68.60
21502;DHT22;27639;48.674;9.242;2022-12-22T03:22:52;12.60;68.60
21502;DHT22;27639;48.674;9.242;2022-12-22T03:25:36;12.70;68.60
21502;DHT22;27639;48.674;9.242;2022-12-22T03:28:25;12.80;68.20
21502;DHT22;27639;48.674;9.242;2022-12-22T03:31:04;12.80;68.00
21502;DHT22;27639;48.674;9.242;2022-12-22T03:33:30;12.90;67.70
21502;DHT22;27639;48.674;9.242;2022-12-22T03:35:57;12.90;67.60
21502;DHT22;27639;48.674;9.242;2022-12-22T03:38:23;12.90;67.50
21502;DHT22;27639;48.674;9.242;2022-12-22T03:40:49;12.90;67.50
21502;DHT22;27639;48.674;9.242;2022-12-22T03:43:15;12.90;67.40
21502;DHT22;27639;48.674;9.242;2022-12-22T03:46:00;13.00;67.30
21502;DHT22;27639;48.674;9.242;2022-12-22T03:48:59;13.00;67.30
21502;DHT22;27639;48.674;9.242;2022-12-22T03:51:53;13.00;67.20
21502;DHT22;27639;48.674;9.242;2022-12-22T03:54:21;13.00;67.20
21502;DHT22;27639;48.674;9.242;2022-12-22T03:56:47;13.00;67.20
21502;DHT22;27639;48.674;9.242;2022-12-22T03:59:13;13.00;67.10
21502;DHT22;27639;48.674;9.242;2022-12-22T04:01:41;13.00;66.90
21502;DHT22;27639;48.674;9.242;2022-12-22T04:04:07;13.00;66.80
21502;DHT22;27639;48.674;9.242;2022-12-22T04:06:33;13.10;66.80
21502;DHT22;27639;48.674;9.242;2022-12-22T04:08:59;13.10;66.80
21502;DHT22;27639;48.674;9.242;2022-12-22T04:11:24;13.10;66.80
21502;DHT22;27639;48.674;9.242;2022-12-22T04:14:08;13.10;66.80
21502;DHT22;27639;48.674;9.242;2022-12-22T04:16:34;13.10;66.80
21502;DHT22;27639;48.674;9.242;2022-12-22T04:18:59;13.10;66.90
21502;DHT22;27639;48.674;9.242;2022-12-22T04:21:25;13.00;66.70
21502;DHT22;27639;48.674;9.242;2022-12-22T04:23:51;13.10;66.80
21502;DHT22;27639;48.674;9.242;2022-12-22T04:26:18;13.10;66.60
21502;DHT22;27639;48.674;9.242;2022-12-22T04:28:44;13.10;66.50
21502;DHT22;27639;48.674;9.242;2022-12-22T04:31:09;13.20;66.30
21502;DHT22;27639;48.674;9.242;2022-12-22T04:33:35;13.20;66.20
21502;DHT22;27639;48.674;9.242;2022-12-22T04:36:01;13.30;66.10
21502;DHT22;27639;48.674;9.242;2022-12-22T04:38:26;13.20;65.90
21502;DHT22;27639;48.674;9.242;2022-12-22T04:40:52;13.20;65.80
21502;DHT22;27639;48.674;9.242;2022-12-22T04:43:17;13.20;65.70
21502;DHT22;27639;48.674;9.242;2022-12-22T04:45:43;13.20;65.70
21502;DHT22;27639;48.674;9.242;2022-12-22T04:48:09;13.20;65.60
21502;DHT22;27639;48.674;9.242;2022-12-22T04:50:34;13.30;65.50
21502;DHT22;27639;48.674;9.242;2022-12-22T04:53:00;13.30;65.40
21502;DHT22;27639;48.674;9.242;2022-12-22T04:55:26;13.30;65.30
21502;DHT22;27639;48.674;9.242;2022-12-22T04:57:52;13.40;65.60
21502;DHT22;27639;48.674;9.242;2022-12-22T05:00:18;13.30;65.60
21502;DHT22;27639;48.674;9.242;2022-12-22T05:02:43;13.30;65.90
21502;DHT22;27639;48.674;9.242;2022-12-22T05:05:09;13.30;66.10
21502;DHT22;27639;48.674;9.242;2022-12-22T05:07:35;13.30;66.20
21502;DHT22;27639;48.674;9.242;2022-12-22T05:10:02;13.20;66.20
21502;DHT22;27639;48.674;9.242;2022-12-22T05:12:28;13.30;66.10
21502;DHT22;27639;48.674;9.242;2022-12-22T05:15:12;13.40;66.10
21502;DHT22;27639;48.674;9.242;2022-12-22T05:17:37;13.30;66.10
21502;DHT22;27639;48.674;9.242;2022-12-22T05:20:03;13.40;66.30
21502;DHT22;27639;48.674;9.242;2022-12-22T05:22:29;13.40;66.40
21502;DHT22;27639;48.674;9.242;2022-12-22T05:24:54;13.40;66.40
21502;DHT22;27639;48.674;9.242;2022-12-22T05:27:20;13.40;66.40
21502;DHT22;27639;48.674;9.242;2022-12-22T05:29:45;13.30;66.30
21502;DHT22;27639;48.674;9.242;2022-12-22T05:32:11;13.30;66.60
21502;DHT22;27639;48.674;9.242;2022-12-22T05:34:36;13.30;66.80
21502;DHT22;27639;48.674;9.242;2022-12-22T05:37:02;13.20;67.00
21502;DHT22;27639;48.674;9.242;2022-12-22T05:39:28;13.20;67.40
21502;DHT22;27639;48.674;9.242;2022-12-22T05:41:53;13.10;67.80
21502;DHT22;27639;48.674;9.242;2022-12-22T05:44:19;13.20;67.90
21502;DHT22;27639;48.674;9.242;2022-12-22T05:46:44;13.20;68.00
21502;DHT22;27639;48.674;9.242;2022-12-22T05:49:10;13.20;68.10
21502;DHT22;27639;48.674;9.242;2022-12-22T05:51:36;13.10;68.00
21502;DHT22;27639;48.674;9.242;2022-12-22T05:54:01;13.10;68.10
21502;DHT22;27639;48.674;9.242;2022-12-22T05:56:27;13.10;68.10
21502;DHT22;27639;48.674;9.242;2022-12-22T05:58:52;13.10;68.00
21502;DHT22;27639;48.674;9.242;2022-12-22T06:01:18;13.10;68.00
21502;DHT22;27639;48.674;9.242;2022-12-22T06:03:43;13.10;67.80
21502;DHT22;27639;48.674;9.242;2022-12-22T06:06:09;13.10;67.80
21502;DHT22;27639;48.674;9.242;2022-12-22T06:08:34;13.10;67.70
21502;DHT22;27639;48.674;9.242;2022-12-22T06:11:00;13.10;67.30
21502;DHT22;27639;48.674;9.242;2022-12-22T06:13:25;13.10;67.10
21502;DHT22;27639;48.674;9.242;2022-12-22T06:15:51;13.10;66.90
21502;DHT22;27639;48.674;9.242;2022-12-22T06:18:17;13.10;67.00
21502;DHT22;27639;48.674;9.242;2022-12-22T06:20:44;13.10;67.10
21502;DHT22;27639;48.674;9.242;2022-12-22T06:23:11;13.00;66.80
21502;DHT22;27639;48.674;9.242;2022-12-22T06:25:37;13.10;66.80
21502;DHT22;27639;48.674;9.242;2022-12-22T06:28:03;13.10;66.60
21502;DHT22;27639;48.674;9.242;2022-12-22T06:30:28;13.10;66.50
21502;DHT22;27639;48.674;9.242;2022-12-22T06:32:54;13.10;66.30
21502;DHT22;27639;48.674;9.242;2022-12-22T06:35:19;13.10;66.10
21502;DHT22;27639;48.674;9.242;2022-12-22T06:37:45;13.10;66.10
21502;DHT22;27639;48.674;9.242;2022-12-22T06:40:11;13.10;65.90
21502;DHT22;27639;48.674;9.242;2022-12-22T06:42:36;13.10;66.10
21502;DHT22;27639;48.674;9.242;2022-12-22T06:45:21;13.10;66.10
21502;DHT22;27639;48.674;9.242;2022-12-22T06:47:46;13.10;65.90
21502;DHT22;27639;48.674;9.242;2022-12-22T06:50:12;13.10;66.10
21502;DHT22;27639;48.674;9.242;2022-12-22T06:52:38;13.10;65.90
21502;DHT22;27639;48.674;9.242;2022-12-22T06:55:04;13.00;65.70
21502;DHT22;27639;48.674;9.242;2022-12-22T06:57:30;13.00;65.70
21502;DHT22;27639;48.674;9.242;2022-12-22T06:59:56;13.00;65.70
21502;DHT22;27639;48.674;9.242;2022-12-22T07:02:21;13.00;65.60
21502;DHT22;27639;48.674;9.242;2022-12-22T07:04:47;13.00;65.50
21502;DHT22;27639;48.674;9.242;2022-12-22T07:07:12;13.10;65.60
21502;DHT22;27639;48.674;9.242;2022-12-22T07:09:38;13.10;65.40
21502;DHT22;27639;48.674;9.242;2022-12-22T07:12:03;13.20;65.30
21502;DHT22;27639;48.674;9.242;2022-12-22T07:14:29;13.20;65.00
21502;DHT22;27639;48.674;9.242;2022-12-22T07:16:54;13.30;65.10
21502;DHT22;27639;48.674;9.242;2022-12-22T07:19:20;13.20;65.00
21502;DHT22;27639;48.674;9.242;2022-12-22T07:21:46;13.20;64.80
21502;DHT22;27639;48.674;9.242;2022-12-22T07:24:13;13.30;64.80
21502;DHT22;27639;48.674;9.242;2022-12-22T07:26:39;13.20;64.80
21502;DHT22;27639;48.674;9.242;2022-12-22T07:29:04;13.20;64.80
21502;DHT22;27639;48.674;9.242;2022-12-22T07:31:30;13.20;64.80
21502;DHT22;27639;48.674;9.242;2022-12-22T07:33:55;13.10;64.60
21502;DHT22;27639;48.674;9.242;2022-12-22T07:36:21;13.10;64.60
21502;DHT22;27639;48.674;9.242;2022-12-22T07:38:49;13.10;64.60
21502;DHT22;27639;48.674;9.242;2022-12-22T07:41:17;13.10;64.40
21502;DHT22;27639;48.674;9.242;2022-12-22T07:44:02;13.10;64.60
21502;DHT22;27639;48.674;9.242;2022-12-22T07:46:32;13.10;64.70
21502;DHT22;27639;48.674;9.242;2022-12-22T07:48:58;13.10;64.70
21502;DHT22;27639;48.674;9.242;2022-12-22T07:51:42;13.00;65.00
21502;DHT22;27639;48.674;9.242;2022-12-22T07:54:10;13.00;65.30
21502;DHT22;27639;48.674;9.242;2022-12-22T07:56:37;13.00;65.30
21502;DHT22;27639;48.674;9.242;2022-12-22T07:59:02;13.00;65.60
21502;DHT22;27639;48.674;9.242;2022-12-22T08:01:28;13.00;66.00
21502;DHT22;27639;48.674;9.242;2022-12-22T08:03:54;12.90;66.10
21502;DHT22;27639;48.674;9.242;2022-12-22T08:06:19;12.90;66.20
21502;DHT22;27639;48.674;9.242;2022-12-22T08:08:45;12.90;66.40
21502;DHT22;27639;48.674;9.242;2022-12-22T08:11:11;12.90;66.40
21502;DHT22;27639;48.674;9.242;2022-12-22T08:13:37;12.80;66.50
21502;DHT22;27639;48.674;9.242;2022-12-22T08:16:08;12.70;66.70
21502;DHT22;27639;48.674;9.242;2022-12-22T08:18:34;12.70;66.80
21502;DHT22;27639;48.674;9.242;2022-12-22T08:21:01;12.70;67.00
21502;DHT22;27639;48.674;9.242;2022-12-22T08:23:27;12.80;67.00
21502;DHT22;27639;48.674;9.242;2022-12-22T08:26:25;12.70;66.90
21502;DHT22;27639;48.674;9.242;2022-12-22T08:29:02;12.70;66.60
21502;DHT22;27639;48.674;9.242;2022-12-22T08:31:31;12.70;66.70
21502;DHT22;27639;48.674;9.242;2022-12-22T08:33:59;12.60;66.60
21502;DHT22;27639;48.674;9.242;2022-12-22T08:36:29;12.70;66.60
21502;DHT22;27639;48.674;9.242;2022-12-22T08:38:56;12.60;66.10
21502;DHT22;27639;48.674;9.242;2022-12-22T08:41:22;12.70;65.90
21502;DHT22;27639;48.674;9.242;2022-12-22T08:44:07;12.80;65.50
21502;DHT22;27639;48.674;9.242;2022-12-22T08:46:33;12.80;65.20
21502;DHT22;27639;48.674;9.242;2022-12-22T08:48:59;12.80;64.90
21502;DHT22;27639;48.674;9.242;2022-12-22T08:51:24;12.80;65.00
21502;DHT22;27639;48.674;9.242;2022-12-22T08:53:50;12.80;64.80
21502;DHT22;27639;48.674;9.242;2022-12-22T08:56:15;12.90;64.90
21502;DHT22;27639;48.674;9.242;2022-12-22T08:58:41;12.90;64.70
21502;DHT22;27639;48.674;9.242;2022-12-22T09:01:06;13.00;64.60
21502;DHT22;27639;48.674;9.242;2022-12-22T09:03:32;13.10;64.90
21502;DHT22;27639;48.674;9.242;2022-12-22T09:06:01;13.10;65.00
21502;DHT22;27639;48.674;9.242;2022-12-22T09:08:27;13.10;64.90
21502;DHT22;27639;48.674;9.242;2022-12-22T09:10:52;13.10;64.80
21502;DHT22;27639;48.674;9.242;2022-12-22T09:13:19;13.10;64.60
21502;DHT22;27639;48.674;9.242;2022-12-22T09:15:44;13.10;64.60
21502;DHT22;27639;48.674;9.242;2022-12-22T09:18:10;13.10;64.90
21502;DHT22;27639;48.674;9.242;2022-12-22T09:20:35;13.20;65.00
21502;DHT22;27639;48.674;9.242;2022-12-22T09:23:01;13.20;64.80
21502;DHT22;27639;48.674;9.242;2022-12-22T09:25:27;13.30;64.80
21502;DHT22;27639;48.674;9.242;2022-12-22T09:27:52;13.30;65.10
21502;DHT22;27639;48.674;9.242;2022-12-22T09:30:18;13.20;65.30
21502;DHT22;27639;48.674;9.242;2022-12-22T09:32:43;13.20;65.50
21502;DHT22;27639;48.674;9.242;2022-12-22T09:35:09;13.20;65.80
21502;DHT22;27639;48.674;9.242;2022-12-22T09:37:34;13.20;65.90
21502;DHT22;27639;48.674;9.242;2022-12-22T09:40:00;13.20;65.90
21502;DHT22;27639;48.674;9.242;2022-12-22T09:42:26;13.20;65.90
21502;DHT22;27639;48.674;9.242;2022-12-22T09:44:52;13.20;66.20
21502;DHT22;27639;48.674;9.242;2022-12-22T09:47:24;13.20;67.20
21502;DHT22;27639;48.674;9.242;2022-12-22T09:49:52;13.10;66.70
21502;DHT22;27639;48.674;9.242;2022-12-22T09:55:01;13.00;67.30
21502;DHT22;27639;48.674;9.242;2022-12-22T09:57:31;12.90;67.50
21502;DHT22;27639;48.674;9.242;2022-12-22T10:00:14;12.90;67.80
21502;DHT22;27639;48.674;9.242;2022-12-22T10:07:57;12.80;68.80
21502;DHT22;27639;48.674;9.242;2022-12-22T10:10:26;12.70;68.70
21502;DHT22;27639;48.674;9.242;2022-12-22T10:13:00;12.70;69.40
21502;DHT22;27639;48.674;9.242;2022-12-22T10:15:34;12.70;69.50
21502;DHT22;27639;48.674;9.242;2022-12-22T10:18:35;12.60;70.00
21502;DHT22;27639;48.674;9.242;2022-12-22T10:23:29;12.60;70.60
21502;DHT22;27639;48.674;9.242;2022-12-22T10:28:23;12.70;70.70
21502;DHT22;27639;48.674;9.242;2022-12-22T10:30:51;12.70;70.80
21502;DHT22;27639;48.674;9.242;2022-12-22T10:33:33;12.70;70.90
21502;DHT22;27639;48.674;9.242;2022-12-22T10:35:58;12.70;70.80
21502;DHT22;27639;48.674;9.242;2022-12-22T10:38:33;12.80;71.00
21502;DHT22;27639;48.674;9.242;2022-12-22T10:41:05;12.70;70.90
21502;DHT22;27639;48.674;9.242;2022-12-22T10:43:33;12.70;71.30
21502;DHT22;27639;48.674;9.242;2022-12-22T10:46:00;12.60;71.30
21502;DHT22;27639;48.674;9.242;2022-12-22T10:48:35;12.70;71.80
21502;DHT22;27639;48.674;9.242;2022-12-22T10:51:03;12.80;71.50
21502;DHT22;27639;48.674;9.242;2022-12-22T10:53:48;12.70;71.80
21502;DHT22;27639;48.674;9.242;2022-12-22T10:56:27;12.80;71.80
21502;DHT22;27639;48.674;9.242;2022-12-22T11:01:35;13.00;71.30
21502;DHT22;27639;48.674;9.242;2022-12-22T11:04:16;13.00;71.20
21502;DHT22;27639;48.674;9.242;2022-12-22T11:06:43;13.10;70.90
21502;DHT22;27639;48.674;9.242;2022-12-22T11:09:10;13.10;70.90
21502;DHT22;27639;48.674;9.242;2022-12-22T11:14:42;13.20;70.30
21502;DHT22;27639;48.674;9.242;2022-12-22T11:27:56;13.20;70.80
21502;DHT22;27639;48.674;9.242;2022-12-22T11:33:05;13.00;71.50
21502;DHT22;27639;48.674;9.242;2022-12-22T11:35:57;13.10;71.00
21502;DHT22;27639;48.674;9.242;2022-12-22T11:41:19;13.20;70.80
21502;DHT22;27639;48.674;9.242;2022-12-22T11:52:02;13.30;70.40
21502;DHT22;27639;48.674;9.242;2022-12-22T12:08:38;13.50;69.60
21502;DHT22;27639;48.674;9.242;2022-12-22T12:14:30;13.60;69.20
21502;DHT22;27639;48.674;9.242;2022-12-22T12:23:02;13.70;68.50
21502;DHT22;27639;48.674;9.242;2022-12-22T12:25:43;13.90;68.50
21502;DHT22;27639;48.674;9.242;2022-12-22T12:31:14;14.20;67.70
21502;DHT22;27639;48.674;9.242;2022-12-22T12:39:01;14.30;66.50
21502;DHT22;27639;48.674;9.242;2022-12-22T12:41:47;14.30;65.90
21502;DHT22;27639;48.674;9.242;2022-12-22T12:44:19;14.30;65.60
21502;DHT22;27639;48.674;9.242;2022-12-22T12:52:03;14.30;64.90
21502;DHT22;27639;48.674;9.242;2022-12-22T13:10:29;14.20;64.90
21502;DHT22;27639;48.674;9.242;2022-12-22T13:12:55;14.20;65.20
21502;DHT22;27639;48.674;9.242;2022-12-22T13:17:50;14.20;65.10
21502;DHT22;27639;48.674;9.242;2022-12-22T13:20:23;14.20;65.20
21502;DHT22;27639;48.674;9.242;2022-12-22T13:22:57;14.20;65.00
21502;DHT22;27639;48.674;9.242;2022-12-22T13:25:29;14.30;64.90
21502;DHT22;27639;48.674;9.242;2022-12-22T13:28:02;14.20;64.80
21502;DHT22;27639;48.674;9.242;2022-12-22T13:30:29;14.20;65.90
21502;DHT22;27639;48.674;9.242;2022-12-22T13:32:55;14.20;65.30
21502;DHT22;27639;48.674;9.242;2022-12-22T13:35:38;14.20;65.50
21502;DHT22;27639;48.674;9.242;2022-12-22T13:38:04;14.10;65.10
21502;DHT22;27639;48.674;9.242;2022-12-22T13:40:39;14.10;65.60
21502;DHT22;27639;48.674;9.242;2022-12-22T13:43:11;14.20;65.50
21502;DHT22;27639;48.674;9.242;2022-12-22T13:48:34;14.10;65.30
21502;DHT22;27639;48.674;9.242;2022-12-22T13:51:06;14.10;65.30
21502;DHT22;27639;48.674;9.242;2022-12-22T13:53:37;14.10;65.30
21502;DHT22;27639;48.674;9.242;2022-12-22T13:56:15;14.00;65.30
21502;DHT22;27639;48.674;9.242;2022-12-22T13:58:43;13.90;65.40
21502;DHT22;27639;48.674;9.242;2022-12-22T14:01:17;13.90;65.40
21502;DHT22;27639;48.674;9.242;2022-12-22T14:03:58;13.90;65.40
21502;DHT22;27639;48.674;9.242;2022-12-22T14:06:36;13.90;65.40
21502;DHT22;27639;48.674;9.242;2022-12-22T14:09:09;13.90;65.40
21502;DHT22;27639;48.674;9.242;2022-12-22T14:11:35;13.90;65.40
21502;DHT22;27639;48.674;9.242;2022-12-22T14:14:05;14.00;65.50
21502;DHT22;27639;48.674;9.242;2022-12-22T14:16:30;14.00;65.30
21502;DHT22;27639;48.674;9.242;2022-12-22T14:18:56;14.10;65.10
21502;DHT22;27639;48.674;9.242;2022-12-22T14:21:23;14.10;64.70
21502;DHT22;27639;48.674;9.242;2022-12-22T14:23:49;14.00;64.70
21502;DHT22;27639;48.674;9.242;2022-12-22T14:26:22;13.90;64.60
21502;DHT22;27639;48.674;9.242;2022-12-22T14:28:52;13.80;64.50
21502;DHT22;27639;48.674;9.242;2022-12-22T14:31:19;13.90;64.60
21502;DHT22;27639;48.674;9.242;2022-12-22T14:33:58;13.90;64.70
21502;DHT22;27639;48.674;9.242;2022-12-22T14:36:37;13.90;64.50
21502;DHT22;27639;48.674;9.242;2022-12-22T14:39:08;13.90;64.40
21502;DHT22;27639;48.674;9.242;2022-12-22T14:41:45;13.90;64.50
21502;DHT22;27639;48.674;9.242;2022-12-22T14:44:19;13.90;64.50
21502;DHT22;27639;48.674;9.242;2022-12-22T14:47:09;13.90;64.50
21502;DHT22;27639;48.674;9.242;2022-12-22T14:49:58;13.90;64.30
21502;DHT22;27639;48.674;9.242;2022-12-22T14:52:34;13.90;64.10
21502;DHT22;27639;48.674;9.242;2022-12-22T14:55:03;13.80;64.40
21502;DHT22;27639;48.674;9.242;2022-12-22T14:57:38;13.70;64.40
21502;DHT22;27639;48.674;9.242;2022-12-22T15:00:28;13.80;64.50
21502;DHT22;27639;48.674;9.242;2022-12-22T15:02:55;13.60;64.50
21502;DHT22;27639;48.674;9.242;2022-12-22T15:07:55;13.60;64.50
21502;DHT22;27639;48.674;9.242;2022-12-22T15:10:23;13.50;64.30
21502;DHT22;27639;48.674;9.242;2022-12-22T15:12:52;13.40;64.50
21502;DHT22;27639;48.674;9.242;2022-12-22T15:15:21;13.30;64.60
21502;DHT22;27639;48.674;9.242;2022-12-22T15:17:51;13.30;64.80
21502;DHT22;27639;48.674;9.242;2022-12-22T15:20:26;13.20;64.60
21502;DHT22;27639;48.674;9.242;2022-12-22T15:22:52;13.20;64.60
21502;DHT22;27639;48.674;9.242;2022-12-22T15:25:20;13.20;64.70
21502;DHT22;27639;48.674;9.242;2022-12-22T15:27:46;13.10;64.50
21502;DHT22;27639;48.674;9.242;2022-12-22T15:30:18;13.10;64.70
21502;DHT22;27639;48.674;9.242;2022-12-22T15:32:45;13.10;64.90
21502;DHT22;27639;48.674;9.242;2022-12-22T15:35:15;13.00;64.80
21502;DHT22;27639;48.674;9.242;2022-12-22T15:37:41;13.00;64.90
21502;DHT22;27639;48.674;9.242;2022-12-22T15:40:18;13.00;65.10
21502;DHT22;27639;48.674;9.242;2022-12-22T15:42:44;12.90;65.20
21502;DHT22;27639;48.674;9.242;2022-12-22T15:45:10;12.90;65.40
21502;DHT22;27639;48.674;9.242;2022-12-22T15:47:36;13.00;65.40
21502;DHT22;27639;48.674;9.242;2022-12-22T15:50:02;13.00;65.30
21502;DHT22;27639;48.674;9.242;2022-12-22T15:52:30;13.00;65.30
21502;DHT22;27639;48.674;9.242;2022-12-22T15:54:56;13.00;65.20
21502;DHT22;27639;48.674;9.242;2022-12-22T15:57:21;13.00;65.20
21502;DHT22;27639;48.674;9.242;2022-12-22T15:59:47;13.00;65.30
21502;DHT22;27639;48.674;9.242;2022-12-22T16:02:13;12.90;65.20
21502;DHT22;27639;48.674;9.242;2022-12-22T16:04:39;12.90;65.10
21502;DHT22;27639;48.674;9.242;2022-12-22T16:07:04;12.90;65.10
21502;DHT22;27639;48.674;9.242;2022-12-22T16:09:36;13.00;65.00
21502;DHT22;27639;48.674;9.242;2022-12-22T16:12:16;13.00;64.80
21502;DHT22;27639;48.674;9.242;2022-12-22T16:14:46;13.00;64.50
21502;DHT22;27639;48.674;9.242;2022-12-22T16:17:25;13.00;64.70
21502;DHT22;27639;48.674;9.242;2022-12-22T16:19:50;13.00;64.50
21502;DHT22;27639;48.674;9.242;2022-12-22T16:22:19;13.00;64.50
21502;DHT22;27639;48.674;9.242;2022-12-22T16:24:46;13.00;64.40
21502;DHT22;27639;48.674;9.242;2022-12-22T16:27:13;12.90;64.30
21502;DHT22;27639;48.674;9.242;2022-12-22T16:29:43;12.90;64.40
21502;DHT22;27639;48.674;9.242;2022-12-22T16:32:27;12.90;64.70
21502;DHT22;27639;48.674;9.242;2022-12-22T16:35:05;12.90;64.70
21502;DHT22;27639;48.674;9.242;2022-12-22T16:37:37;12.90;64.60
21502;DHT22;27639;48.674;9.242;2022-12-22T16:40:07;12.90;64.90
21502;DHT22;27639;48.674;9.242;2022-12-22T16:42:33;12.90;64.70
21502;DHT22;27639;48.674;9.242;2022-12-22T16:44:59;12.90;64.80
21502;DHT22;27639;48.674;9.242;2022-12-22T16:47:27;12.90;64.80
21502;DHT22;27639;48.674;9.242;2022-12-22T16:49:55;12.90;64.90
21502;DHT22;27639;48.674;9.242;2022-12-22T16:52:25;12.90;65.10
21502;DHT22;27639;48.674;9.242;2022-12-22T16:54:52;12.90;65.10
21502;DHT22;27639;48.674;9.242;2022-12-22T16:57:18;12.80;65.20
21502;DHT22;27639;48.674;9.242;2022-12-22T16:59:43;12.90;65.20
21502;DHT22;27639;48.674;9.242;2022-12-22T17:02:28;12.90;65.40
21502;DHT22;27639;48.674;9.242;2022-12-22T17:04:58;12.90;65.00
21502;DHT22;27639;48.674;9.242;2022-12-22T17:07:26;12.90;65.50
21502;DHT22;27639;48.674;9.242;2022-12-22T17:09:58;12.90;65.40
21502;DHT22;27639;48.674;9.242;2022-12-22T17:12:27;13.00;65.40
21502;DHT22;27639;48.674;9.242;2022-12-22T17:14:55;13.00;65.30
21502;DHT22;27639;48.674;9.242;2022-12-22T17:17:21;13.00;65.20
21502;DHT22;27639;48.674;9.242;2022-12-22T17:19:48;13.00;65.00
21502;DHT22;27639;48.674;9.242;2022-12-22T17:22:28;13.10;64.80
21502;DHT22;27639;48.674;9.242;2022-12-22T17:24:57;13.10;64.50
21502;DHT22;27639;48.674;9.242;2022-12-22T17:27:26;13.10;64.60
21502;DHT22;27639;48.674;9.242;2022-12-22T17:29:53;13.20;64.60
21502;DHT22;27639;48.674;9.242;2022-12-22T17:32:20;13.20;65.10
21502;DHT22;27639;48.674;9.242;2022-12-22T17:34:46;13.20;64.00
21502;DHT22;27639;48.674;9.242;2022-12-22T17:37:14;13.30;64.00
21502;DHT22;27639;48.674;9.242;2022-12-22T17:39:41;13.30;63.90
21502;DHT22;27639;48.674;9.242;2022-12-22T17:42:19;13.30;63.90
21502;DHT22;27639;48.674;9.242;2022-12-22T17:44:45;13.30;63.60
21502;DHT22;27639;48.674;9.242;2022-12-22T17:47:16;13.40;63.60
21502;DHT22;27639;48.674;9.242;2022-12-22T17:49:43;13.30;63.50
21502;DHT22;27639;48.674;9.242;2022-12-22T17:52:15;13.40;63.60
21502;DHT22;27639;48.674;9.242;2022-12-22T17:54:42;13.40;63.60
21502;DHT22;27639;48.674;9.242;2022-12-22T17:57:22;13.50;63.30
21502;DHT22;27639;48.674;9.242;2022-12-22T17:59:48;13.60;63.10